sensor_id;sensor_type;location;lat;lon;timestamp;temperature;humidity
63771;DHT22;60282;43.862;18.430;2022-09-27T00:02:21;12.70;99.90
63771;DHT22;60282;43.862;18.430;2022-09-27T00:04:47;12.70;99.90
63771;DHT22;60282;43.862;18.430;2022-09-27T00:07:14;12.70;99.90
63771;DHT22;60282;43.862;18.430;2022-09-27T00:09:40;12.70;99.90
63771;DHT22;60282;43.862;18.430;2022-09-27T00:12:05;12.60;99.90
63771;DHT22;60282;43.862;18.430;2022-09-27T00:14:31;12.60;99.90
63771;DHT22;60282;43.862;18.430;2022-09-27T00:16:57;12.60;99.90
63771;DHT22;60282;43.862;18.430;2022-09-27T00:19:24;12.50;99.90
63771;DHT22;60282;43.862;18.430;2022-09-27T00:21:50;12.50;99.90
63771;DHT22;60282;43.862;18.430;2022-09-27T00:24:18;12.40;99.90
63771;DHT22;60282;43.862;18.430;2022-09-27T00:26:45;12.40;99.90
63771;DHT22;60282;43.862;18.430;2022-09-27T00:29:12;12.40;99.90
63771;DHT22;60282;43.862;18.430;2022-09-27T00:31:39;12.30;99.90
63771;DHT22;60282;43.862;18.430;2022-09-27T00:34:06;12.30;99.90
63771;DHT22;60282;43.862;18.430;2022-09-27T00:36:32;12.30;99.90
63771;DHT22;60282;43.862;18.430;2022-09-27T00:38:59;12.30;99.90
63771;DHT22;60282;43.862;18.430;2022-09-27T00:41:31;12.30;99.90
63771;DHT22;60282;43.862;18.430;2022-09-27T00:44:03;12.20;99.90
63771;DHT22;60282;43.862;18.430;2022-09-27T00:46:44;12.20;99.90
63771;DHT22;60282;43.862;18.430;2022-09-27T00:51:44;12.20;99.90
63771;DHT22;60282;43.862;18.430;2022-09-27T00:54:13;12.10;99.90
63771;DHT22;60282;43.862;18.430;2022-09-27T00:56:42;12.10;99.90
63771;DHT22;60282;43.862;18.430;2022-09-27T00:59:13;12.10;99.90
63771;DHT22;60282;43.862;18.430;2022-09-27T01:01:41;12.10;99.90
63771;DHT22;60282;43.862;18.430;2022-09-27T01:04:08;12.10;99.90
63771;DHT22;60282;43.862;18.430;2022-09-27T01:06:35;12.10;99.90
63771;DHT22;60282;43.862;18.430;2022-09-27T01:09:01;12.10;99.90
63771;DHT22;60282;43.862;18.430;2022-09-27T01:11:33;12.10;99.90
63771;DHT22;60282;43.862;18.430;2022-09-27T01:14:07;12.10;99.90
63771;DHT22;60282;43.862;18.430;2022-09-27T01:16:44;12.20;99.90
63771;DHT22;60282;43.862;18.430;2022-09-27T01:35:47;12.10;99.90
63771;DHT22;60282;43.862;18.430;2022-09-27T01:41:11;12.10;99.90
63771;DHT22;60282;43.862;18.430;2022-09-27T01:43:46;12.00;99.90
63771;DHT22;60282;43.862;18.430;2022-09-27T01:46:59;12.00;99.90
63771;DHT22;60282;43.862;18.430;2022-09-27T01:49:25;12.00;99.90
63771;DHT22;60282;43.862;18.430;2022-09-27T01:51:59;12.00;99.90
63771;DHT22;60282;43.862;18.430;2022-09-27T01:54:37;12.10;99.90
63771;DHT22;60282;43.862;18.430;2022-09-27T01:57:07;12.00;99.90
63771;DHT22;60282;43.862;18.430;2022-09-27T02:00:04;12.00;99.90
63771;DHT22;60282;43.862;18.430;2022-09-27T02:02:34;12.00;99.90
63771;DHT22;60282;43.862;18.430;2022-09-27T02:05:05;12.00;99.90
63771;DHT22;60282;43.862;18.430;2022-09-27T02:07:54;12.00;99.90
63771;DHT22;60282;43.862;18.430;2022-09-27T02:10:29;12.10;99.90
63771;DHT22;60282;43.862;18.430;2022-09-27T02:13:00;12.00;99.90
63771;DHT22;60282;43.862;18.430;2022-09-27T02:15:29;12.00;99.90
63771;DHT22;60282;43.862;18.430;2022-09-27T02:18:01;12.10;99.90
63771;DHT22;60282;43.862;18.430;2022-09-27T02:20:30;12.10;99.90
63771;DHT22;60282;43.862;18.430;2022-09-27T02:23:03;12.10;99.90
63771;DHT22;60282;43.862;18.430;2022-09-27T02:25:50;12.00;99.90
63771;DHT22;60282;43.862;18.430;2022-09-27T02:30:45;12.00;99.90
63771;DHT22;60282;43.862;18.430;2022-09-27T02:33:11;12.00;99.90
63771;DHT22;60282;43.862;18.430;2022-09-27T02:35:37;12.00;99.90
63771;DHT22;60282;43.862;18.430;2022-09-27T02:38:04;12.00;99.90
63771;DHT22;60282;43.862;18.430;2022-09-27T02:40:34;12.00;99.90
63771;DHT22;60282;43.862;18.430;2022-09-27T02:43:03;13.60;99.90
63771;DHT22;60282;43.862;18.430;2022-09-27T02:45:53;12.00;99.90
63771;DHT22;60282;43.862;18.430;2022-09-27T03:04:44;11.80;99.90
63771;DHT22;60282;43.862;18.430;2022-09-27T03:07:13;11.80;99.90
63771;DHT22;60282;43.862;18.430;2022-09-27T03:09:46;11.80;99.90
63771;DHT22;60282;43.862;18.430;2022-09-27T03:12:12;11.80;99.90
63771;DHT22;60282;43.862;18.430;2022-09-27T03:14:38;11.80;99.90
63771;DHT22;60282;43.862;18.430;2022-09-27T03:17:05;11.80;99.90
63771;DHT22;60282;43.862;18.430;2022-09-27T03:19:31;11.80;99.90
63771;DHT22;60282;43.862;18.430;2022-09-27T03:21:57;11.80;99.90
63771;DHT22;60282;43.862;18.430;2022-09-27T03:24:23;11.80;99.90
63771;DHT22;60282;43.862;18.430;2022-09-27T03:26:49;11.70;99.90
63771;DHT22;60282;43.862;18.430;2022-09-27T03:29:15;11.70;99.90
63771;DHT22;60282;43.862;18.430;2022-09-27T03:31:42;11.80;99.90
63771;DHT22;60282;43.862;18.430;2022-09-27T03:34:07;11.70;99.90
63771;DHT22;60282;43.862;18.430;2022-09-27T03:36:33;11.80;99.90
63771;DHT22;60282;43.862;18.430;2022-09-27T03:38:59;11.70;99.90
63771;DHT22;60282;43.862;18.430;2022-09-27T03:41:25;11.70;99.90
63771;DHT22;60282;43.862;18.430;2022-09-27T03:43:51;11.60;99.90
63771;DHT22;60282;43.862;18.430;2022-09-27T03:46:17;11.60;99.90
63771;DHT22;60282;43.862;18.430;2022-09-27T03:48:43;11.60;99.90
63771;DHT22;60282;43.862;18.430;2022-09-27T03:51:10;11.60;99.90
63771;DHT22;60282;43.862;18.430;2022-09-27T03:53:37;11.60;99.90
63771;DHT22;60282;43.862;18.430;2022-09-27T03:56:03;11.60;99.90
63771;DHT22;60282;43.862;18.430;2022-09-27T03:58:31;11.70;99.90
63771;DHT22;60282;43.862;18.430;2022-09-27T04:00:57;11.70;99.90
63771;DHT22;60282;43.862;18.430;2022-09-27T04:03:23;11.70;99.90
63771;DHT22;60282;43.862;18.430;2022-09-27T04:05:52;11.70;99.90
63771;DHT22;60282;43.862;18.430;2022-09-27T04:08:25;11.70;99.90
63771;DHT22;60282;43.862;18.430;2022-09-27T04:10:50;11.70;99.90
63771;DHT22;60282;43.862;18.430;2022-09-27T04:13:20;11.70;99.90
63771;DHT22;60282;43.862;18.430;2022-09-27T04:15:46;11.70;99.90
63771;DHT22;60282;43.862;18.430;2022-09-27T04:18:11;11.80;99.90
63771;DHT22;60282;43.862;18.430;2022-09-27T04:20:37;11.80;99.90
63771;DHT22;60282;43.862;18.430;2022-09-27T04:23:04;11.90;99.90
63771;DHT22;60282;43.862;18.430;2022-09-27T04:25:29;11.80;99.90
63771;DHT22;60282;43.862;18.430;2022-09-27T04:27:58;11.80;99.90
63771;DHT22;60282;43.862;18.430;2022-09-27T04:30:25;11.70;99.90
63771;DHT22;60282;43.862;18.430;2022-09-27T04:32:51;11.70;99.90
63771;DHT22;60282;43.862;18.430;2022-09-27T04:35:18;11.70;99.90
63771;DHT22;60282;43.862;18.430;2022-09-27T04:38:03;11.70;99.90
63771;DHT22;60282;43.862;18.430;2022-09-27T04:40:29;11.70;99.90
63771;DHT22;60282;43.862;18.430;2022-09-27T04:42:58;11.70;99.90
63771;DHT22;60282;43.862;18.430;2022-09-27T04:45:24;11.80;99.90
63771;DHT22;60282;43.862;18.430;2022-09-27T04:47:50;11.80;99.90
63771;DHT22;60282;43.862;18.430;2022-09-27T04:50:17;11.80;99.90
63771;DHT22;60282;43.862;18.430;2022-09-27T04:52:51;11.80;99.90
63771;DHT22;60282;43.862;18.430;2022-09-27T04:55:19;11.80;99.90
63771;DHT22;60282;43.862;18.430;2022-09-27T04:57:47;11.90;99.90
63771;DHT22;60282;43.862;18.430;2022-09-27T05:00:14;11.90;99.90
63771;DHT22;60282;43.862;18.430;2022-09-27T05:02:43;11.90;99.90
63771;DHT22;60282;43.862;18.430;2022-09-27T05:05:09;11.80;99.90
63771;DHT22;60282;43.862;18.430;2022-09-27T05:07:36;11.80;99.90
63771;DHT22;60282;43.862;18.430;2022-09-27T05:10:05;11.80;99.90
63771;DHT22;60282;43.862;18.430;2022-09-27T05:12:31;11.90;99.90
63771;DHT22;60282;43.862;18.430;2022-09-27T05:14:58;11.90;99.90
63771;DHT22;60282;43.862;18.430;2022-09-27T05:17:24;11.90;99.90
63771;DHT22;60282;43.862;18.430;2022-09-27T05:19:50;11.90;99.90
63771;DHT22;60282;43.862;18.430;2022-09-27T05:22:17;12.00;99.90
63771;DHT22;60282;43.862;18.430;2022-09-27T05:24:43;12.00;99.90
63771;DHT22;60282;43.862;18.430;2022-09-27T05:27:12;12.00;99.90
63771;DHT22;60282;43.862;18.430;2022-09-27T05:29:38;12.00;99.90
63771;DHT22;60282;43.862;18.430;2022-09-27T05:32:04;12.00;99.90
63771;DHT22;60282;43.862;18.430;2022-09-27T05:34:30;12.00;99.90
63771;DHT22;60282;43.862;18.430;2022-09-27T05:36:57;12.00;99.90
63771;DHT22;60282;43.862;18.430;2022-09-27T05:39:23;12.00;99.90
63771;DHT22;60282;43.862;18.430;2022-09-27T05:41:49;12.10;99.90
63771;DHT22;60282;43.862;18.430;2022-09-27T05:44:15;12.10;99.90
63771;DHT22;60282;43.862;18.430;2022-09-27T05:46:41;11.20;99.90
63771;DHT22;60282;43.862;18.430;2022-09-27T05:49:07;12.10;99.90
63771;DHT22;60282;43.862;18.430;2022-09-27T05:51:33;12.20;99.90
63771;DHT22;60282;43.862;18.430;2022-09-27T05:54:00;12.20;99.90
63771;DHT22;60282;43.862;18.430;2022-09-27T05:56:27;12.30;99.90
63771;DHT22;60282;43.862;18.430;2022-09-27T05:58:53;12.30;99.90
63771;DHT22;60282;43.862;18.430;2022-09-27T06:01:19;12.40;99.90
63771;DHT22;60282;43.862;18.430;2022-09-27T06:03:45;12.40;99.90
63771;DHT22;60282;43.862;18.430;2022-09-27T06:06:13;12.40;99.90
63771;DHT22;60282;43.862;18.430;2022-09-27T06:08:40;12.50;99.90
63771;DHT22;60282;43.862;18.430;2022-09-27T06:11:08;12.60;99.90
63771;DHT22;60282;43.862;18.430;2022-09-27T06:13:34;12.70;99.90
63771;DHT22;60282;43.862;18.430;2022-09-27T06:16:02;12.80;99.90
63771;DHT22;60282;43.862;18.430;2022-09-27T06:18:31;12.90;99.90
63771;DHT22;60282;43.862;18.430;2022-09-27T06:21:01;13.00;99.90
63771;DHT22;60282;43.862;18.430;2022-09-27T06:23:28;13.20;99.90
63771;DHT22;60282;43.862;18.430;2022-09-27T06:25:54;15.00;99.90
63771;DHT22;60282;43.862;18.430;2022-09-27T06:28:21;13.50;99.90
63771;DHT22;60282;43.862;18.430;2022-09-27T06:30:49;13.60;99.90
63771;DHT22;60282;43.862;18.430;2022-09-27T06:33:16;13.70;99.90
63771;DHT22;60282;43.862;18.430;2022-09-27T06:35:44;13.80;99.90
63771;DHT22;60282;43.862;18.430;2022-09-27T06:38:13;13.90;99.90
63771;DHT22;60282;43.862;18.430;2022-09-27T06:40:41;13.90;99.90
63771;DHT22;60282;43.862;18.430;2022-09-27T06:43:15;13.90;99.90
63771;DHT22;60282;43.862;18.430;2022-09-27T06:45:42;13.90;99.90
63771;DHT22;60282;43.862;18.430;2022-09-27T06:48:10;14.00;99.90
63771;DHT22;60282;43.862;18.430;2022-09-27T06:50:39;14.10;99.90
63771;DHT22;60282;43.862;18.430;2022-09-27T06:53:06;14.10;99.90
63771;DHT22;60282;43.862;18.430;2022-09-27T06:55:33;14.20;99.90
63771;DHT22;60282;43.862;18.430;2022-09-27T06:58:00;14.30;99.90
63771;DHT22;60282;43.862;18.430;2022-09-27T07:00:48;14.40;99.90
63771;DHT22;60282;43.862;18.430;2022-09-27T07:03:14;13.20;99.90
63771;DHT22;60282;43.862;18.430;2022-09-27T07:05:41;14.60;99.90
63771;DHT22;60282;43.862;18.430;2022-09-27T07:08:09;14.70;99.90
63771;DHT22;60282;43.862;18.430;2022-09-27T07:10:37;14.70;99.90
63771;DHT22;60282;43.862;18.430;2022-09-27T07:13:05;14.90;99.90
63771;DHT22;60282;43.862;18.430;2022-09-27T07:15:31;15.10;99.90
63771;DHT22;60282;43.862;18.430;2022-09-27T07:18:00;15.30;99.90
63771;DHT22;60282;43.862;18.430;2022-09-27T07:20:26;15.40;99.90
63771;DHT22;60282;43.862;18.430;2022-09-27T07:22:54;15.50;99.90
63771;DHT22;60282;43.862;18.430;2022-09-27T07:25:20;15.50;99.90
63771;DHT22;60282;43.862;18.430;2022-09-27T07:27:48;15.60;99.90
63771;DHT22;60282;43.862;18.430;2022-09-27T07:30:15;15.60;99.90
63771;DHT22;60282;43.862;18.430;2022-09-27T07:32:42;15.60;99.90
63771;DHT22;60282;43.862;18.430;2022-09-27T07:35:09;15.80;99.90
63771;DHT22;60282;43.862;18.430;2022-09-27T07:37:36;15.90;99.90
63771;DHT22;60282;43.862;18.430;2022-09-27T07:40:05;16.20;99.90
63771;DHT22;60282;43.862;18.430;2022-09-27T07:42:32;16.50;99.90
63771;DHT22;60282;43.862;18.430;2022-09-27T07:44:58;16.90;99.90
63771;DHT22;60282;43.862;18.430;2022-09-27T07:47:25;17.30;99.90
63771;DHT22;60282;43.862;18.430;2022-09-27T07:49:52;17.40;99.90
63771;DHT22;60282;43.862;18.430;2022-09-27T07:52:18;17.60;99.90
63771;DHT22;60282;43.862;18.430;2022-09-27T07:54:45;18.00;99.90
63771;DHT22;60282;43.862;18.430;2022-09-27T07:57:11;17.20;99.90
63771;DHT22;60282;43.862;18.430;2022-09-27T07:59:38;17.40;99.90
63771;DHT22;60282;43.862;18.430;2022-09-27T08:02:04;17.40;99.90
63771;DHT22;60282;43.862;18.430;2022-09-27T08:04:29;17.40;99.90
63771;DHT22;60282;43.862;18.430;2022-09-27T08:06:58;17.50;99.90
63771;DHT22;60282;43.862;18.430;2022-09-27T08:09:24;17.50;99.90
63771;DHT22;60282;43.862;18.430;2022-09-27T08:11:50;17.60;99.90
63771;DHT22;60282;43.862;18.430;2022-09-27T08:14:16;17.60;99.90
63771;DHT22;60282;43.862;18.430;2022-09-27T08:16:43;17.90;99.90
63771;DHT22;60282;43.862;18.430;2022-09-27T08:19:09;18.10;99.90
63771;DHT22;60282;43.862;18.430;2022-09-27T08:21:35;18.70;99.90
63771;DHT22;60282;43.862;18.430;2022-09-27T08:24:01;18.40;99.90
63771;DHT22;60282;43.862;18.430;2022-09-27T08:26:28;18.50;99.90
63771;DHT22;60282;43.862;18.430;2022-09-27T08:28:54;18.40;99.90
63771;DHT22;60282;43.862;18.430;2022-09-27T08:31:20;18.40;99.90
63771;DHT22;60282;43.862;18.430;2022-09-27T08:33:49;18.40;99.90
63771;DHT22;60282;43.862;18.430;2022-09-27T08:36:15;18.60;99.90
63771;DHT22;60282;43.862;18.430;2022-09-27T08:38:42;19.00;99.90
63771;DHT22;60282;43.862;18.430;2022-09-27T08:44:10;19.70;99.90
63771;DHT22;60282;43.862;18.430;2022-09-27T08:46:50;20.00;99.90
63771;DHT22;60282;43.862;18.430;2022-09-27T08:51:50;20.10;99.90
63771;DHT22;60282;43.862;18.430;2022-09-27T08:54:27;19.60;99.90
63771;DHT22;60282;43.862;18.430;2022-09-27T08:57:05;22.60;99.90
63771;DHT22;60282;43.862;18.430;2022-09-27T08:59:39;20.20;99.90
63771;DHT22;60282;43.862;18.430;2022-09-27T09:02:21;20.10;99.90
63771;DHT22;60282;43.862;18.430;2022-09-27T09:04:53;20.00;99.90
63771;DHT22;60282;43.862;18.430;2022-09-27T09:20:53;18.50;99.90
63771;DHT22;60282;43.862;18.430;2022-09-27T09:23:40;16.90;99.90
63771;DHT22;60282;43.862;18.430;2022-09-27T09:29:21;17.60;99.90
63771;DHT22;60282;43.862;18.430;2022-09-27T09:35:02;16.60;99.90
63771;DHT22;60282;43.862;18.430;2022-09-27T09:37:40;16.50;99.90
63771;DHT22;60282;43.862;18.430;2022-09-27T09:40:27;16.40;99.90
63771;DHT22;60282;43.862;18.430;2022-09-27T09:43:28;14.00;99.90
63771;DHT22;60282;43.862;18.430;2022-09-27T09:48:49;15.90;99.90
63771;DHT22;60282;43.862;18.430;2022-09-27T09:51:20;15.40;99.90
63771;DHT22;60282;43.862;18.430;2022-09-27T09:53:56;15.60;99.90
63771;DHT22;60282;43.862;18.430;2022-09-27T09:56:29;15.50;99.90
63771;DHT22;60282;43.862;18.430;2022-09-27T09:59:10;15.30;99.90
63771;DHT22;60282;43.862;18.430;2022-09-27T10:01:41;15.20;99.90
63771;DHT22;60282;43.862;18.430;2022-09-27T10:04:17;15.60;99.90
63771;DHT22;60282;43.862;18.430;2022-09-27T10:06:45;14.90;99.90
63771;DHT22;60282;43.862;18.430;2022-09-27T10:09:15;14.70;99.90
63771;DHT22;60282;43.862;18.430;2022-09-27T10:11:43;14.50;99.90
63771;DHT22;60282;43.862;18.430;2022-09-27T10:14:12;14.40;99.90
63771;DHT22;60282;43.862;18.430;2022-09-27T10:16:40;14.30;99.90
63771;DHT22;60282;43.862;18.430;2022-09-27T10:19:08;14.20;99.90
63771;DHT22;60282;43.862;18.430;2022-09-27T10:21:39;14.10;99.90
63771;DHT22;60282;43.862;18.430;2022-09-27T10:24:19;14.10;99.90
63771;DHT22;60282;43.862;18.430;2022-09-27T10:26:47;14.50;99.90
63771;DHT22;60282;43.862;18.430;2022-09-27T10:31:46;14.60;99.90
63771;DHT22;60282;43.862;18.430;2022-09-27T10:37:19;15.10;99.90
63771;DHT22;60282;43.862;18.430;2022-09-27T10:39:48;15.60;99.90
63771;DHT22;60282;43.862;18.430;2022-09-27T10:42:37;15.70;99.90
63771;DHT22;60282;43.862;18.430;2022-09-27T10:47:51;16.10;99.90
63771;DHT22;60282;43.862;18.430;2022-09-27T10:50:22;16.30;99.90
63771;DHT22;60282;43.862;18.430;2022-09-27T10:53:12;16.30;99.90
63771;DHT22;60282;43.862;18.430;2022-09-27T10:55:37;16.50;99.90
63771;DHT22;60282;43.862;18.430;2022-09-27T10:58:04;16.70;99.90
63771;DHT22;60282;43.862;18.430;2022-09-27T11:00:35;17.20;99.90
63771;DHT22;60282;43.862;18.430;2022-09-27T11:03:14;17.90;99.90
63771;DHT22;60282;43.862;18.430;2022-09-27T11:05:41;18.40;99.90
63771;DHT22;60282;43.862;18.430;2022-09-27T11:08:32;18.50;99.90
63771;DHT22;60282;43.862;18.430;2022-09-27T11:11:02;18.10;99.90
63771;DHT22;60282;43.862;18.430;2022-09-27T11:13:29;18.20;99.90
63771;DHT22;60282;43.862;18.430;2022-09-27T11:30:18;16.90;99.90
63771;DHT22;60282;43.862;18.430;2022-09-27T11:33:03;16.80;99.90
63771;DHT22;60282;43.862;18.430;2022-09-27T11:36:08;16.90;99.90
63771;DHT22;60282;43.862;18.430;2022-09-27T11:38:51;17.10;99.90
63771;DHT22;60282;43.862;18.430;2022-09-27T11:42:05;17.20;99.90
63771;DHT22;60282;43.862;18.430;2022-09-27T11:47:30;17.60;99.90
63771;DHT22;60282;43.862;18.430;2022-09-27T11:55:19;18.00;99.90
63771;DHT22;60282;43.862;18.430;2022-09-27T11:58:03;18.10;99.90
63771;DHT22;60282;43.862;18.430;2022-09-27T12:01:04;18.30;99.90
63771;DHT22;60282;43.862;18.430;2022-09-27T12:16:31;18.70;99.90
63771;DHT22;60282;43.862;18.430;2022-09-27T12:18:57;18.70;99.90
63771;DHT22;60282;43.862;18.430;2022-09-27T12:21:24;19.10;99.90
63771;DHT22;60282;43.862;18.430;2022-09-27T12:23:54;19.50;99.90
63771;DHT22;60282;43.862;18.430;2022-09-27T12:26:37;19.70;99.90
63771;DHT22;60282;43.862;18.430;2022-09-27T12:29:16;20.00;99.90
63771;DHT22;60282;43.862;18.430;2022-09-27T12:34:39;20.90;99.90
63771;DHT22;60282;43.862;18.430;2022-09-27T12:37:22;21.20;99.90
63771;DHT22;60282;43.862;18.430;2022-09-27T12:42:53;22.70;99.90
63771;DHT22;60282;43.862;18.430;2022-09-27T12:45:31;23.20;99.90
63771;DHT22;60282;43.862;18.430;2022-09-27T12:56:38;23.90;97.00
63771;DHT22;60282;43.862;18.430;2022-09-27T13:11:25;24.20;94.20
63771;DHT22;60282;43.862;18.430;2022-09-27T13:13:55;24.20;93.80
63771;DHT22;60282;43.862;18.430;2022-09-27T13:32:38;25.10;90.00
63771;DHT22;60282;43.862;18.430;2022-09-27T13:35:21;24.70;89.90
63771;DHT22;60282;43.862;18.430;2022-09-27T13:37:56;24.30;90.10
63771;DHT22;60282;43.862;18.430;2022-09-27T13:45:54;22.70;91.90
63771;DHT22;60282;43.862;18.430;2022-09-27T13:51:33;21.40;93.20
63771;DHT22;60282;43.862;18.430;2022-09-27T13:54:05;21.20;95.70
63771;DHT22;60282;43.862;18.430;2022-09-27T13:59:18;20.90;96.20
63771;DHT22;60282;43.862;18.430;2022-09-27T14:04:48;20.20;97.00
63771;DHT22;60282;43.862;18.430;2022-09-27T14:07:18;20.00;97.80
63771;DHT22;60282;43.862;18.430;2022-09-27T14:09:48;20.10;97.40
63771;DHT22;60282;43.862;18.430;2022-09-27T14:12:23;19.80;97.50
63771;DHT22;60282;43.862;18.430;2022-09-27T14:14:50;19.80;97.90
63771;DHT22;60282;43.862;18.430;2022-09-27T14:17:17;19.80;97.90
63771;DHT22;60282;43.862;18.430;2022-09-27T14:19:45;19.90;97.60
63771;DHT22;60282;43.862;18.430;2022-09-27T14:22:17;19.80;98.20
63771;DHT22;60282;43.862;18.430;2022-09-27T14:24:48;20.20;97.50
63771;DHT22;60282;43.862;18.430;2022-09-27T14:32:19;21.00;96.10
63771;DHT22;60282;43.862;18.430;2022-09-27T14:34:45;20.80;96.20
63771;DHT22;60282;43.862;18.430;2022-09-27T14:37:22;21.00;96.50
63771;DHT22;60282;43.862;18.430;2022-09-27T14:39:58;21.00;96.20
63771;DHT22;60282;43.862;18.430;2022-09-27T14:42:27;21.10;95.70
63771;DHT22;60282;43.862;18.430;2022-09-27T14:45:00;21.00;95.10
63771;DHT22;60282;43.862;18.430;2022-09-27T14:47:28;20.80;95.00
63771;DHT22;60282;43.862;18.430;2022-09-27T14:50:01;20.70;95.20
63771;DHT22;60282;43.862;18.430;2022-09-27T14:52:32;20.40;96.00
63771;DHT22;60282;43.862;18.430;2022-09-27T14:55:01;17.70;95.40
63771;DHT22;60282;43.862;18.430;2022-09-27T14:57:31;20.20;96.20
63771;DHT22;60282;43.862;18.430;2022-09-27T15:00:22;19.90;96.80
63771;DHT22;60282;43.862;18.430;2022-09-27T15:02:54;19.70;96.70
63771;DHT22;60282;43.862;18.430;2022-09-27T15:05:25;19.50;97.40
63771;DHT22;60282;43.862;18.430;2022-09-27T15:07:51;19.40;97.90
63771;DHT22;60282;43.862;18.430;2022-09-27T15:10:25;19.40;98.00
63771;DHT22;60282;43.862;18.430;2022-09-27T15:12:54;20.60;96.10
63771;DHT22;60282;43.862;18.430;2022-09-27T15:15:27;20.60;96.40
63771;DHT22;60282;43.862;18.430;2022-09-27T15:17:56;21.70;95.80
63771;DHT22;60282;43.862;18.430;2022-09-27T15:20:25;22.50;93.20
63771;DHT22;60282;43.862;18.430;2022-09-27T15:22:56;23.30;91.60
63771;DHT22;60282;43.862;18.430;2022-09-27T15:27:57;24.70;85.00
63771;DHT22;60282;43.862;18.430;2022-09-27T15:30:37;24.90;83.00
63771;DHT22;60282;43.862;18.430;2022-09-27T15:33:05;25.50;80.60
63771;DHT22;60282;43.862;18.430;2022-09-27T15:35:34;25.40;78.20
63771;DHT22;60282;43.862;18.430;2022-09-27T15:38:21;25.00;78.90
63771;DHT22;60282;43.862;18.430;2022-09-27T15:43:37;24.00;80.90
63771;DHT22;60282;43.862;18.430;2022-09-27T15:46:36;23.10;82.90
63771;DHT22;60282;43.862;18.430;2022-09-27T15:49:25;22.50;83.70
63771;DHT22;60282;43.862;18.430;2022-09-27T15:51:53;22.60;84.30
63771;DHT22;60282;43.862;18.430;2022-09-27T15:54:21;22.50;85.00
63771;DHT22;60282;43.862;18.430;2022-09-27T15:56:47;22.40;85.60
63771;DHT22;60282;43.862;18.430;2022-09-27T15:59:34;23.40;84.30
63771;DHT22;60282;43.862;18.430;2022-09-27T16:02:03;22.10;85.30
63771;DHT22;60282;43.862;18.430;2022-09-27T16:04:31;22.50;84.00
63771;DHT22;60282;43.862;18.430;2022-09-27T16:06:59;23.60;85.80
63771;DHT22;60282;43.862;18.430;2022-09-27T16:09:31;22.80;84.50
63771;DHT22;60282;43.862;18.430;2022-09-27T16:11:57;22.60;84.40
63771;DHT22;60282;43.862;18.430;2022-09-27T16:14:23;22.00;85.10
63771;DHT22;60282;43.862;18.430;2022-09-27T16:16:54;21.80;86.40
63771;DHT22;60282;43.862;18.430;2022-09-27T16:19:21;21.50;86.30
63771;DHT22;60282;43.862;18.430;2022-09-27T16:21:49;21.00;88.30
63771;DHT22;60282;43.862;18.430;2022-09-27T16:24:15;20.70;90.00
63771;DHT22;60282;43.862;18.430;2022-09-27T16:26:52;20.20;91.60
63771;DHT22;60282;43.862;18.430;2022-09-27T16:29:18;19.80;94.10
63771;DHT22;60282;43.862;18.430;2022-09-27T16:31:43;19.00;94.50
63771;DHT22;60282;43.862;18.430;2022-09-27T16:34:10;19.00;94.90
63771;DHT22;60282;43.862;18.430;2022-09-27T16:39:10;18.40;96.80
63771;DHT22;60282;43.862;18.430;2022-09-27T16:41:37;18.00;98.70
63771;DHT22;60282;43.862;18.430;2022-09-27T16:44:11;18.20;99.90
63771;DHT22;60282;43.862;18.430;2022-09-27T16:46:40;17.50;99.90
63771;DHT22;60282;43.862;18.430;2022-09-27T16:49:07;17.40;99.90
63771;DHT22;60282;43.862;18.430;2022-09-27T16:51:56;17.30;99.90
63771;DHT22;60282;43.862;18.430;2022-09-27T16:54:26;17.20;99.90
63771;DHT22;60282;43.862;18.430;2022-09-27T16:56:54;17.00;99.90
63771;DHT22;60282;43.862;18.430;2022-09-27T16:59:20;16.90;99.90
63771;DHT22;60282;43.862;18.430;2022-09-27T17:01:49;17.70;99.90
63771;DHT22;60282;43.862;18.430;2022-09-27T17:04:15;15.30;99.90
63771;DHT22;60282;43.862;18.430;2022-09-27T17:06:41;16.40;99.90
63771;DHT22;60282;43.862;18.430;2022-09-27T17:09:07;14.30;99.90
63771;DHT22;60282;43.862;18.430;2022-09-27T17:11:33;15.90;99.90
63771;DHT22;60282;43.862;18.430;2022-09-27T17:13:59;13.20;99.90
63771;DHT22;60282;43.862;18.430;2022-09-27T17:18:52;15.60;99.90
63771;DHT22;60282;43.862;18.430;2022-09-27T17:21:18;15.40;99.90
63771;DHT22;60282;43.862;18.430;2022-09-27T17:23:44;15.20;99.90
63771;DHT22;60282;43.862;18.430;2022-09-27T17:26:22;15.10;99.90
63771;DHT22;60282;43.862;18.430;2022-09-27T17:28:48;15.00;99.90
63771;DHT22;60282;43.862;18.430;2022-09-27T17:31:16;14.90;99.90
63771;DHT22;60282;43.862;18.430;2022-09-27T17:33:45;14.90;99.90
63771;DHT22;60282;43.862;18.430;2022-09-27T17:36:13;15.90;99.90
63771;DHT22;60282;43.862;18.430;2022-09-27T17:38:40;14.80;99.90
63771;DHT22;60282;43.862;18.430;2022-09-27T17:41:08;14.80;99.90
63771;DHT22;60282;43.862;18.430;2022-09-27T17:43:36;14.80;99.90
63771;DHT22;60282;43.862;18.430;2022-09-27T17:46:05;14.90;99.90
63771;DHT22;60282;43.862;18.430;2022-09-27T17:48:32;14.90;99.90
63771;DHT22;60282;43.862;18.430;2022-09-27T17:53:42;15.10;99.90
63771;DHT22;60282;43.862;18.430;2022-09-27T17:56:09;15.10;99.90
63771;DHT22;60282;43.862;18.430;2022-09-27T17:58:35;15.10;99.90
63771;DHT22;60282;43.862;18.430;2022-09-27T18:01:03;14.90;99.90
63771;DHT22;60282;43.862;18.430;2022-09-27T18:03:30;14.90;99.90
63771;DHT22;60282;43.862;18.430;2022-09-27T18:05:56;14.90;99.90
63771;DHT22;60282;43.862;18.430;2022-09-27T18:08:22;14.90;99.90
63771;DHT22;60282;43.862;18.430;2022-09-27T18:10:48;14.90;99.90
63771;DHT22;60282;43.862;18.430;2022-09-27T18:13:15;15.00;99.90
63771;DHT22;60282;43.862;18.430;2022-09-27T18:15:40;15.00;99.90
63771;DHT22;60282;43.862;18.430;2022-09-27T18:18:08;15.00;99.90
63771;DHT22;60282;43.862;18.430;2022-09-27T18:20:35;15.00;99.90
63771;DHT22;60282;43.862;18.430;2022-09-27T18:25:26;15.10;99.90
63771;DHT22;60282;43.862;18.430;2022-09-27T18:27:52;15.30;99.90
63771;DHT22;60282;43.862;18.430;2022-09-27T18:30:23;15.40;99.90
63771;DHT22;60282;43.862;18.430;2022-09-27T18:32:49;15.60;99.90
63771;DHT22;60282;43.862;18.430;2022-09-27T18:35:15;15.30;99.90
63771;DHT22;60282;43.862;18.430;2022-09-27T18:37:43;15.20;99.90
63771;DHT22;60282;43.862;18.430;2022-09-27T18:40:12;15.30;99.90
63771;DHT22;60282;43.862;18.430;2022-09-27T18:42:38;15.20;99.90
63771;DHT22;60282;43.862;18.430;2022-09-27T18:45:07;15.20;99.90